createdAt,value
2022-08-14T00:02:15.208Z,19.40
2022-08-14T00:04:45.373Z,19.40
2022-08-14T00:07:14.229Z,19.40
2022-08-14T00:09:55.614Z,19.30
2022-08-14T00:12:33.615Z,19.30
2022-08-14T00:15:37.659Z,19.20
2022-08-14T00:18:30.956Z,19.20
2022-08-14T00:21:02.902Z,19.20
2022-08-14T00:23:31.000Z,19.10
2022-08-14T00:26:06.464Z,19.10
2022-08-14T00:28:36.878Z,19.10
2022-08-14T00:31:08.192Z,19.00
2022-08-14T00:33:51.454Z,19.00
2022-08-14T00:36:36.034Z,19.00
2022-08-14T00:39:14.717Z,19.00
2022-08-14T00:41:47.820Z,18.90
2022-08-14T00:44:21.351Z,18.90
2022-08-14T00:46:59.626Z,18.80
2022-08-14T00:49:30.032Z,19.00
2022-08-14T00:52:00.506Z,18.80
2022-08-14T00:54:27.770Z,18.80
2022-08-14T00:56:56.107Z,18.80
2022-08-14T00:59:28.621Z,18.70
2022-08-14T01:02:01.466Z,18.70
2022-08-14T01:04:37.821Z,18.60
2022-08-14T01:07:22.469Z,18.60
2022-08-14T01:10:04.346Z,18.60
2022-08-14T01:12:33.837Z,18.50
2022-08-14T01:15:09.445Z,18.50
2022-08-14T01:18:00.655Z,18.50
2022-08-14T01:20:47.030Z,18.50
2022-08-14T01:23:18.858Z,18.50
2022-08-14T01:25:51.499Z,18.40
2022-08-14T01:28:34.159Z,18.40
2022-08-14T01:31:17.675Z,18.40
2022-08-14T01:33:59.727Z,18.30
2022-08-14T01:36:39.328Z,18.30
2022-08-14T01:39:13.248Z,18.20
2022-08-14T01:41:50.081Z,18.30
2022-08-14T01:44:32.089Z,18.20
2022-08-14T01:47:19.591Z,18.10
2022-08-14T01:49:59.980Z,18.20
2022-08-14T01:53:00.169Z,18.10
2022-08-14T01:55:31.685Z,18.10
2022-08-14T01:58:20.346Z,18.00
2022-08-14T02:00:56.479Z,18.00
2022-08-14T02:03:31.600Z,18.00
2022-08-14T02:06:03.918Z,18.00
2022-08-14T02:08:53.030Z,18.00
2022-08-14T02:11:24.512Z,17.90
2022-08-14T02:14:07.226Z,17.90
2022-08-14T02:16:43.922Z,17.90
2022-08-14T02:19:19.721Z,17.80
2022-08-14T02:21:57.996Z,17.80
2022-08-14T02:24:39.697Z,17.80
2022-08-14T02:28:24.385Z,17.80
2022-08-14T02:30:00.034Z,17.70
2022-08-14T02:32:36.806Z,17.70
2022-08-14T02:35:15.807Z,17.70
2022-08-14T02:37:47.877Z,17.60
2022-08-14T02:40:18.519Z,17.60
2022-08-14T02:42:54.598Z,17.60
2022-08-14T02:45:23.881Z,17.50
2022-08-14T02:47:53.905Z,17.50
2022-08-14T02:50:27.244Z,17.50
2022-08-14T02:52:57.145Z,17.50
2022-08-14T02:55:25.311Z,17.40
2022-08-14T02:57:58.271Z,17.40
2022-08-14T03:00:35.484Z,17.40
2022-08-14T03:03:08.114Z,17.40
2022-08-14T03:05:37.016Z,17.40
2022-08-14T03:08:16.150Z,17.30
2022-08-14T03:10:48.745Z,17.30
2022-08-14T03:13:21.682Z,17.30
2022-08-14T03:15:55.499Z,17.30
2022-08-14T03:18:31.293Z,17.30
2022-08-14T03:21:08.009Z,17.20
2022-08-14T03:23:38.609Z,17.20
2022-08-14T03:26:29.948Z,17.20
2022-08-14T03:29:01.143Z,17.10
2022-08-14T03:31:30.082Z,17.10
2022-08-14T03:34:00.234Z,17.10
2022-08-14T03:37:51.711Z,17.00
2022-08-14T03:39:23.981Z,17.00
2022-08-14T03:41:56.100Z,17.00
2022-08-14T03:45:19.341Z,17.00
2022-08-14T03:47:15.303Z,16.90
2022-08-14T03:49:50.054Z,16.90
2022-08-14T03:52:40.505Z,16.90
2022-08-14T03:55:09.710Z,16.90
2022-08-14T03:57:37.546Z,16.80
2022-08-14T04:00:13.541Z,16.80
2022-08-14T04:02:55.040Z,16.80
2022-08-14T04:05:22.359Z,16.80
2022-08-14T04:08:08.332Z,16.80
2022-08-14T04:10:38.519Z,16.80
2022-08-14T04:13:06.816Z,16.80
2022-08-14T04:15:56.546Z,16.70
2022-08-14T04:18:23.183Z,16.70
2022-08-14T04:20:51.680Z,16.60
2022-08-14T04:23:29.445Z,16.60
2022-08-14T04:26:14.438Z,16.60
2022-08-14T04:29:08.649Z,16.60
2022-08-14T04:32:57.796Z,16.60
2022-08-14T04:34:27.142Z,16.60
2022-08-14T04:37:22.187Z,16.60
2022-08-14T04:40:15.216Z,16.60
2022-08-14T04:43:01.533Z,16.60
2022-08-14T04:45:40.759Z,16.60
2022-08-14T04:48:38.934Z,16.60
2022-08-14T04:51:05.216Z,16.60
2022-08-14T04:53:36.189Z,16.50
2022-08-14T04:56:10.643Z,16.50
2022-08-14T04:59:09.983Z,16.60
2022-08-14T05:01:49.753Z,16.50
2022-08-14T05:04:21.701Z,16.60
2022-08-14T05:06:55.163Z,16.60
2022-08-14T05:09:28.798Z,16.60
2022-08-14T05:11:56.661Z,16.60
2022-08-14T05:14:53.106Z,16.60
2022-08-14T05:17:34.799Z,16.60
2022-08-14T05:21:55.311Z,16.60
2022-08-14T05:22:59.850Z,16.60
2022-08-14T05:25:30.829Z,16.70
2022-08-14T05:28:22.424Z,16.70
2022-08-14T05:30:54.265Z,16.60
2022-08-14T05:33:25.835Z,16.60
2022-08-14T05:36:01.106Z,16.60
2022-08-14T05:38:35.245Z,16.60
2022-08-14T05:41:48.523Z,16.60
2022-08-14T05:44:12.983Z,16.60
2022-08-14T05:46:40.192Z,16.60
2022-08-14T05:49:09.855Z,16.60
2022-08-14T05:51:39.757Z,16.70
2022-08-14T05:54:11.359Z,16.60
2022-08-14T05:56:41.081Z,16.70
2022-08-14T05:59:08.228Z,16.70
2022-08-14T06:01:35.556Z,16.70
2022-08-14T06:04:04.619Z,16.80
2022-08-14T06:06:38.018Z,16.80
2022-08-14T06:09:09.802Z,16.80
2022-08-14T06:11:38.053Z,16.80
2022-08-14T06:14:12.374Z,16.90
2022-08-14T06:16:48.609Z,16.90
2022-08-14T06:19:18.360Z,16.90
2022-08-14T06:21:45.777Z,16.90
2022-08-14T06:24:18.776Z,17.00
2022-08-14T06:26:52.074Z,17.00
2022-08-14T06:29:34.565Z,17.10
2022-08-14T06:32:38.600Z,17.20
2022-08-14T06:35:03.921Z,17.20
2022-08-14T06:37:49.063Z,17.20
2022-08-14T06:40:26.898Z,17.20
2022-08-14T06:43:00.061Z,17.30
2022-08-14T06:45:35.172Z,17.30
2022-08-14T06:48:06.237Z,17.40
2022-08-14T06:50:39.818Z,17.40
2022-08-14T06:53:07.510Z,17.50
2022-08-14T06:55:37.085Z,17.50
2022-08-14T06:58:24.775Z,17.60
2022-08-14T07:01:15.155Z,17.60
2022-08-14T07:04:01.392Z,17.70
2022-08-14T07:06:46.355Z,17.80
2022-08-14T07:09:19.485Z,17.80
2022-08-14T07:11:49.786Z,17.90
2022-08-14T07:14:17.167Z,17.90
2022-08-14T07:16:44.406Z,18.00
2022-08-14T07:19:11.955Z,18.10
2022-08-14T07:21:39.946Z,18.20
2022-08-14T07:24:09.703Z,18.30
2022-08-14T07:30:05.914Z,18.50
2022-08-14T07:32:37.261Z,18.60
2022-08-14T07:35:05.031Z,18.60
2022-08-14T07:37:33.061Z,18.70
2022-08-14T07:40:03.228Z,18.70
2022-08-14T07:42:32.565Z,18.90
2022-08-14T07:45:01.247Z,19.00
2022-08-14T07:47:29.328Z,19.10
2022-08-14T07:50:08.587Z,19.20
2022-08-14T07:52:39.181Z,19.30
2022-08-14T07:55:12.480Z,19.50
2022-08-14T07:57:44.952Z,19.60
2022-08-14T08:00:31.307Z,19.70
2022-08-14T08:03:00.294Z,19.90
2022-08-14T08:05:28.080Z,20.00
2022-08-14T08:07:55.393Z,20.10
2022-08-14T08:11:01.446Z,20.20
2022-08-14T08:13:23.954Z,20.30
2022-08-14T08:15:58.403Z,20.40
2022-08-14T08:18:27.553Z,20.50
2022-08-14T08:20:59.690Z,20.60
2022-08-14T08:23:39.903Z,20.80
2022-08-14T08:26:07.890Z,20.90
2022-08-14T08:28:36.224Z,21.00
2022-08-14T08:31:08.184Z,21.20
2022-08-14T08:33:37.860Z,21.30
2022-08-14T08:36:12.694Z,21.50
2022-08-14T08:39:18.383Z,21.60
2022-08-14T08:41:41.521Z,21.70
2022-08-14T08:44:17.506Z,21.80
2022-08-14T08:47:00.086Z,21.90
2022-08-14T08:49:42.810Z,22.10
2022-08-14T08:52:24.697Z,22.20
2022-08-14T08:54:56.246Z,22.20
2022-08-14T08:57:24.036Z,22.30
2022-08-14T08:59:55.384Z,22.40
2022-08-14T09:02:27.500Z,22.50
2022-08-14T09:05:04.321Z,22.70
2022-08-14T09:07:33.017Z,23.00
2022-08-14T09:10:01.124Z,23.00
2022-08-14T09:12:34.146Z,23.10
2022-08-14T09:15:11.631Z,23.20
2022-08-14T09:17:43.992Z,23.40
2022-08-14T09:20:14.104Z,23.40
2022-08-14T09:22:54.980Z,23.40
2022-08-14T09:25:59.863Z,23.50
2022-08-14T09:28:10.793Z,23.60
2022-08-14T09:30:54.352Z,23.70
2022-08-14T09:33:56.604Z,23.80
2022-08-14T09:37:21.119Z,23.80
2022-08-14T09:40:23.785Z,23.90
2022-08-14T09:43:04.265Z,24.00
2022-08-14T09:45:53.280Z,24.20
2022-08-14T09:48:30.268Z,24.40
2022-08-14T09:54:19.554Z,24.50
2022-08-14T09:56:31.097Z,24.60
2022-08-14T09:59:15.496Z,24.70
2022-08-14T10:01:46.105Z,24.80
2022-08-14T10:04:34.437Z,24.90
2022-08-14T10:07:08.228Z,25.00
2022-08-14T10:09:59.455Z,25.20
2022-08-14T10:12:50.195Z,25.30
2022-08-14T10:15:27.822Z,25.40
2022-08-14T10:18:13.279Z,25.40
2022-08-14T10:21:00.831Z,25.50
2022-08-14T10:23:42.806Z,25.60
2022-08-14T10:26:11.973Z,25.70
2022-08-14T10:29:18.557Z,25.80
2022-08-14T10:31:45.269Z,25.90
2022-08-14T10:34:21.218Z,25.90
2022-08-14T10:37:14.297Z,26.00
2022-08-14T10:40:01.889Z,26.10
2022-08-14T10:42:39.071Z,26.20
2022-08-14T10:45:29.904Z,26.30
2022-08-14T10:48:09.133Z,26.30
2022-08-14T10:50:46.470Z,26.40
2022-08-14T10:53:14.319Z,26.40
2022-08-14T10:55:45.784Z,26.50
2022-08-14T10:58:14.948Z,26.60
2022-08-14T11:01:01.182Z,26.70
2022-08-14T11:03:56.608Z,26.80
2022-08-14T11:06:24.509Z,26.80
2022-08-14T11:08:52.924Z,26.90
2022-08-14T11:11:25.318Z,26.90
2022-08-14T11:13:57.668Z,27.00
2022-08-14T11:16:26.988Z,27.10
2022-08-14T11:18:59.684Z,27.20
2022-08-14T11:21:30.220Z,27.30
2022-08-14T11:23:59.922Z,27.40
2022-08-14T11:26:30.097Z,27.50
2022-08-14T11:29:00.431Z,27.60
2022-08-14T11:31:38.582Z,27.70
2022-08-14T11:34:10.264Z,27.80
2022-08-14T11:37:02.460Z,28.00
2022-08-14T11:39:42.176Z,28.00
2022-08-14T11:42:57.622Z,28.20
2022-08-14T11:45:17.141Z,28.30
2022-08-14T11:48:12.637Z,28.50
2022-08-14T11:50:37.879Z,28.60
2022-08-14T11:53:08.782Z,28.70
2022-08-14T11:55:39.517Z,28.70
2022-08-14T11:58:15.750Z,28.70
2022-08-14T12:01:00.933Z,28.70
2022-08-14T12:03:51.920Z,28.70
2022-08-14T12:06:29.460Z,28.70
2022-08-14T12:09:08.742Z,28.70
2022-08-14T12:11:47.491Z,28.80
2022-08-14T12:14:29.906Z,28.80
2022-08-14T12:17:12.000Z,28.90
2022-08-14T12:19:57.093Z,28.90
2022-08-14T12:22:44.316Z,29.10
2022-08-14T12:25:20.988Z,29.20
2022-08-14T12:27:59.418Z,29.40
2022-08-14T12:30:45.631Z,29.60
2022-08-14T12:33:33.185Z,29.80
2022-08-14T12:36:05.810Z,29.80
2022-08-14T12:38:44.207Z,29.80
2022-08-14T12:41:22.176Z,29.90
2022-08-14T12:44:07.054Z,29.90
2022-08-14T12:46:43.396Z,29.90
2022-08-14T12:49:19.151Z,29.90
2022-08-14T12:54:28.741Z,29.80
2022-08-14T12:57:53.734Z,29.80
2022-08-14T13:00:25.633Z,29.80
2022-08-14T13:02:55.901Z,29.90
2022-08-14T13:05:30.487Z,30.00
2022-08-14T13:08:00.261Z,30.10
2022-08-14T13:10:51.141Z,30.30
2022-08-14T13:13:20.983Z,30.40
2022-08-14T13:15:56.311Z,30.50
2022-08-14T13:21:14.453Z,30.70
2022-08-14T13:23:44.273Z,30.70
2022-08-14T13:26:13.544Z,30.70
2022-08-14T13:31:31.930Z,30.80
2022-08-14T13:34:04.402Z,30.80
2022-08-14T13:36:56.985Z,30.80
2022-08-14T13:39:36.273Z,30.80
2022-08-14T13:42:13.203Z,30.90
2022-08-14T13:44:42.577Z,31.10
2022-08-14T13:47:15.236Z,31.40
2022-08-14T13:49:57.515Z,31.60
2022-08-14T13:52:51.805Z,31.80
2022-08-14T13:55:19.723Z,31.90
2022-08-14T13:58:02.832Z,31.90
2022-08-14T14:00:53.149Z,31.90
2022-08-14T14:03:31.926Z,31.90
2022-08-14T14:09:05.054Z,31.90
2022-08-14T14:11:41.108Z,31.80
2022-08-14T14:14:45.208Z,31.80
2022-08-14T14:17:01.874Z,31.70
2022-08-14T14:19:35.587Z,31.70
2022-08-14T14:22:10.686Z,31.60
2022-08-14T14:25:01.271Z,31.50
2022-08-14T14:27:41.181Z,31.40
2022-08-14T14:30:51.828Z,31.30
2022-08-14T14:33:23.127Z,31.30
2022-08-14T14:35:56.899Z,31.20
2022-08-14T14:38:32.773Z,31.10
2022-08-14T14:41:04.307Z,31.10
2022-08-14T14:43:36.416Z,31.10
2022-08-14T14:46:22.419Z,31.10
2022-08-14T14:49:10.069Z,31.00
2022-08-14T14:51:51.459Z,30.90
2022-08-14T14:54:37.830Z,30.80
2022-08-14T14:57:09.378Z,30.80
2022-08-14T14:59:48.134Z,30.80
2022-08-14T15:08:16.950Z,30.80
2022-08-14T15:10:54.203Z,30.90
2022-08-14T15:15:47.693Z,31.10
2022-08-14T15:18:37.776Z,31.30
2022-08-14T15:21:08.116Z,31.50
2022-08-14T15:23:44.774Z,31.70
2022-08-14T15:26:23.313Z,31.90
2022-08-14T15:29:03.362Z,32.10
2022-08-14T15:31:34.887Z,32.20
2022-08-14T15:34:45.806Z,32.30
2022-08-14T15:36:58.791Z,32.50
2022-08-14T15:39:26.223Z,32.60
2022-08-14T15:41:58.072Z,32.70
2022-08-14T15:44:28.852Z,32.70
2022-08-14T15:47:06.991Z,32.80
2022-08-14T15:49:35.195Z,32.90
2022-08-14T15:52:04.982Z,33.00
2022-08-14T15:54:33.928Z,33.10
2022-08-14T15:57:09.134Z,33.20
2022-08-14T15:59:58.511Z,33.30
2022-08-14T16:02:27.615Z,33.30
2022-08-14T16:04:56.133Z,33.30
2022-08-14T16:07:26.973Z,33.40
2022-08-14T16:10:25.395Z,33.40
2022-08-14T16:12:47.726Z,33.50
2022-08-14T16:15:16.808Z,33.40
2022-08-14T16:17:45.580Z,33.40
2022-08-14T16:20:40.928Z,33.50
2022-08-14T16:23:10.448Z,33.50
2022-08-14T16:25:42.834Z,33.40
2022-08-14T16:28:10.389Z,33.30
2022-08-14T16:30:55.075Z,33.30
2022-08-14T16:33:56.328Z,33.30
2022-08-14T16:36:31.311Z,33.30
2022-08-14T16:39:02.150Z,33.30
2022-08-14T16:41:30.709Z,33.30
2022-08-14T16:44:22.136Z,33.20
2022-08-14T16:47:04.185Z,33.20
2022-08-14T16:50:02.985Z,33.10
2022-08-14T16:52:25.827Z,33.10
2022-08-14T16:55:12.471Z,33.10
2022-08-14T16:57:58.759Z,33.00
2022-08-14T17:00:43.667Z,32.90
2022-08-14T17:03:13.216Z,32.70
2022-08-14T17:05:46.658Z,32.70
2022-08-14T17:08:33.329Z,32.60
2022-08-14T17:11:10.571Z,32.50
2022-08-14T17:13:59.983Z,32.40
2022-08-14T17:16:38.326Z,32.30
2022-08-14T17:19:09.945Z,32.20
2022-08-14T17:21:46.772Z,32.10
2022-08-14T17:24:56.645Z,32.00
2022-08-14T17:27:07.411Z,31.90
2022-08-14T17:29:54.338Z,31.80
2022-08-14T17:32:55.423Z,31.70
2022-08-14T17:35:58.755Z,31.60
2022-08-14T17:38:39.162Z,31.50
2022-08-14T17:41:32.664Z,31.50
2022-08-14T17:44:34.302Z,31.40
2022-08-14T17:47:14.825Z,31.30
2022-08-14T17:49:53.660Z,31.30
2022-08-14T17:52:34.148Z,31.30
2022-08-14T17:55:12.776Z,31.20
2022-08-14T17:57:59.173Z,31.20
2022-08-14T18:00:27.042Z,31.10
2022-08-14T18:02:58.413Z,31.10
2022-08-14T18:06:09.669Z,31.10
2022-08-14T18:08:34.178Z,31.00
2022-08-14T18:11:03.851Z,31.00
2022-08-14T18:13:50.794Z,30.90
2022-08-14T18:16:22.437Z,30.80
2022-08-14T18:18:51.613Z,30.80
2022-08-14T18:21:43.049Z,30.70
2022-08-14T18:24:28.165Z,30.60
2022-08-14T18:27:14.860Z,30.60
2022-08-14T18:29:55.982Z,30.50
2022-08-14T18:32:35.263Z,30.40
2022-08-14T18:35:11.356Z,30.30
2022-08-14T18:37:55.458Z,30.20
2022-08-14T18:40:34.398Z,30.10
2022-08-14T18:43:03.716Z,30.00
2022-08-14T18:45:41.372Z,29.90
2022-08-14T18:48:20.857Z,29.80
2022-08-14T18:51:02.206Z,29.70
2022-08-14T18:53:49.939Z,29.50
2022-08-14T18:56:18.214Z,29.40
2022-08-14T18:58:56.865Z,29.40
2022-08-14T19:01:30.182Z,29.30
2022-08-14T19:04:00.967Z,29.10
2022-08-14T19:06:42.970Z,29.10
2022-08-14T19:10:01.787Z,29.00
2022-08-14T19:13:03.112Z,28.90
2022-08-14T19:15:37.275Z,28.80
2022-08-14T19:18:28.847Z,28.60
2022-08-14T19:21:13.343Z,28.50
2022-08-14T19:23:43.955Z,28.40
2022-08-14T19:26:36.310Z,28.30
2022-08-14T19:29:37.552Z,28.20
2022-08-14T19:32:36.641Z,28.10
2022-08-14T19:35:18.360Z,28.00
2022-08-14T19:37:54.024Z,27.90
2022-08-14T19:40:42.704Z,27.70
2022-08-14T19:43:50.736Z,27.60
2022-08-14T19:46:39.051Z,27.50
2022-08-14T19:48:58.210Z,27.40
2022-08-14T19:51:32.882Z,27.30
2022-08-14T19:54:13.690Z,27.20
2022-08-14T19:56:46.557Z,27.10
2022-08-14T19:59:19.958Z,27.00
2022-08-14T20:01:52.989Z,26.90
2022-08-14T20:04:45.764Z,26.80
2022-08-14T20:07:59.803Z,26.80
2022-08-14T20:11:03.252Z,26.70
2022-08-14T20:13:32.235Z,26.60
2022-08-14T20:16:12.211Z,26.50
2022-08-14T20:18:50.028Z,26.40
2022-08-14T20:21:20.021Z,26.40
2022-08-14T20:23:49.602Z,26.30
2022-08-14T20:26:30.671Z,26.30
2022-08-14T20:29:04.713Z,26.20
2022-08-14T20:31:37.559Z,26.10
2022-08-14T20:34:24.347Z,26.00
2022-08-14T20:37:19.808Z,25.90
2022-08-14T20:39:54.572Z,25.90
2022-08-14T20:42:49.376Z,25.80
2022-08-14T20:45:23.791Z,25.70
2022-08-14T20:48:07.268Z,25.70
2022-08-14T20:50:44.878Z,25.60
2022-08-14T20:53:31.806Z,25.60
2022-08-14T20:56:04.709Z,25.50
2022-08-14T20:58:49.314Z,25.40
2022-08-14T21:01:18.673Z,25.30
2022-08-14T21:03:57.083Z,25.30
2022-08-14T21:06:30.366Z,25.20
2022-08-14T21:09:19.416Z,25.20
2022-08-14T21:12:02.653Z,25.10
2022-08-14T21:14:30.476Z,25.10
2022-08-14T21:17:01.369Z,25.00
2022-08-14T21:19:30.282Z,25.00
2022-08-14T21:22:01.926Z,24.90
2022-08-14T21:24:39.854Z,24.90
2022-08-14T21:27:21.986Z,24.90
2022-08-14T21:29:55.475Z,24.90
2022-08-14T21:32:47.241Z,24.90
2022-08-14T21:35:22.704Z,24.90
2022-08-14T21:37:52.282Z,24.80
2022-08-14T21:40:42.170Z,24.80
2022-08-14T21:43:17.977Z,24.80
2022-08-14T21:45:53.082Z,24.70
2022-08-14T21:48:25.045Z,24.70
2022-08-14T21:51:00.201Z,24.60
2022-08-14T21:53:33.861Z,24.60
2022-08-14T21:56:03.464Z,24.50
2022-08-14T21:58:53.210Z,24.50
2022-08-14T22:01:20.495Z,24.50
2022-08-14T22:03:55.141Z,24.40
2022-08-14T22:06:29.050Z,24.40
2022-08-14T22:09:00.098Z,24.30
2022-08-14T22:11:28.347Z,24.30
2022-08-14T22:14:02.494Z,24.20
2022-08-14T22:17:00.719Z,24.20
2022-08-14T22:19:47.305Z,24.10
2022-08-14T22:22:25.972Z,24.10
2022-08-14T22:25:00.287Z,24.10
2022-08-14T22:27:32.192Z,24.10
2022-08-14T22:30:02.358Z,24.00
2022-08-14T22:32:56.258Z,24.00
2022-08-14T22:35:18.493Z,23.90
2022-08-14T22:38:32.634Z,23.80
2022-08-14T22:40:58.997Z,23.80
2022-08-14T22:43:27.633Z,23.70
2022-08-14T22:46:02.383Z,23.70
2022-08-14T22:48:30.173Z,23.70
2022-08-14T22:50:57.818Z,23.70
2022-08-14T22:53:29.270Z,23.70
2022-08-14T22:55:58.887Z,23.60
2022-08-14T22:58:31.693Z,23.50
2022-08-14T23:01:12.148Z,23.50
2022-08-14T23:03:42.503Z,23.50
2022-08-14T23:07:02.436Z,23.50
2022-08-14T23:09:35.463Z,23.40
2022-08-14T23:11:47.740Z,23.40
2022-08-14T23:14:23.938Z,23.30
2022-08-14T23:16:57.397Z,23.30
2022-08-14T23:19:34.676Z,23.30
2022-08-14T23:22:06.721Z,23.20
2022-08-14T23:24:35.057Z,23.20
2022-08-14T23:27:09.175Z,23.20
2022-08-14T23:29:38.034Z,23.10
2022-08-14T23:32:15.632Z,23.10
2022-08-14T23:34:48.293Z,23.10
2022-08-14T23:37:19.362Z,23.10
2022-08-14T23:39:54.318Z,23.00
2022-08-14T23:42:22.699Z,23.00
2022-08-14T23:45:08.637Z,23.00
2022-08-14T23:47:51.799Z,22.90
2022-08-14T23:50:38.572Z,22.90
2022-08-14T23:53:47.293Z,22.80
2022-08-14T23:56:31.933Z,22.80
2022-08-14T23:59:01.851Z,22.70
